Airfield :
LOGIN :

Register | Disclaimer

   EN    FR    IT 

 










Legend :    VFR   Marginal VFR   IFR   Intensive IFR   Very Intensive IFR
Visi :
Ceiling :
>= 8 km
>= 3000ft
5 to 8 km
1000 to 3000 ft
1500m to 5 km
500 to 1000 ft
800 to 1500m
200 to 500 ft
< 800m
< 200 ft
Symbols :   Thunderstorms  Fog  Heavy snow  Heavy precipitations  Wind > 20 kt
SIGMETs :     Misc.  Thunderstorms  Icing  Turbulence  Mountain Waves  Volcanic Ashes







- Airport Elevation : 529 ft
- IATA code : CHR
- Download approach charts


LFLX - Chateauroux

CURRENT METAR :
  • 200900Z AUTO 16005KT 4300 BR OVC002 06/06 Q1025 TEMPO BKN006 BECMG 9999 NSW

EXPIRED METARs :
  • 200830Z AUTO 16003KT 120V200 2100 R21/1400U BR VV/// 06/06 Q1025 TEMPO BKN006 BECMG 9999 NSW
  • 200800Z AUTO 15004KT 1200 0900 R21/2000U BCFG OVC003 05/05 Q1025 TEMPO 1800 BR VV///
  • 200730Z AUTO 13005KT 100V160 3700 1600 BR OVC003 05/05 Q1025 TEMPO 1800 BR VV///
  • 200700Z AUTO 11004KT 1600 1200 R21/2000D BR OVC003 05/05 Q1025 TEMPO 0300 FG VV///
  • 200630Z AUTO 07003KT 2900 BR VV/// 05/05 Q1025 TEMPO 0300 FG

TAF TAF LFLX
Valid from the 20 at 06:00 until the 21 at 12:00 UTC


200500Z 2006/2112 VRB02KT 4000 BR OVC008
TEMPO 2006/2010 1800 BR OVC002
PROB40
TEMPO 2006/2009 0300 FG VV///
BECMG 2010/2012 20006KT 9999 NSW BKN020
TEMPO 2010/2016 BKN006
BECMG 2022/2101 2000 BR OVC002
TEMPO 2101/2110 0200 FG VV///
BECMG 2110/2112 CAVOK
No reported NOTAMs for that airfield.



MET'MAP, your aeronautical weather chart ! - Copyright ORBIFLY December 2007 - Disclaimer

ORBIFLY MET'MAP TEAM :

Programming & Development : Alexandra Zaïnal
Concept & Development : Baudouin d'Aumeries
Co-Development & Prog : Marc-Olivier Méhu
Technical & hardware support : Manuel Goepfert

Contact : metmap@orbifly.com




SOURCES & CREDITS :

   NOAA